Pacific Hornblower — WBR2335 — position and weather

sailwx.info

Track history (hours):
 
Tides and Currents Weather Stations Pressure Air Temp Water Temp Dewpoint Dewpoint Depression Visibility Wind Speed Wind Dir Waves Ship Positions

Pacific Hornblower

Owner: HORNBLOWER CRUISES AND EVENTS, SAN DIEGO, CA. More information available from US FCC via Universal Licensing System and Coast Guard Vessel Documentation Center.

Last reported at 2017-Dec-16 05:00 UTC. Time now 2017-Dec-16 05:11 UTC.
Position N 37°50' W 122°27'.

Length 30 m.

Type: Wing in ground effect craft. MMSI: 367107280.

Date/timePositionNaut miles runAvg speedWind from/ knotsBaromVisibWave heightAir tempDewpointWater temp
2017-Dec-16 05:00N 37°50' W 122°27'2 4.2
2017-Dec-16 04:30N 37°51' W 122°28'3 6.7
2017-Dec-16 04:00N 37°52' W 122°24'4 7.3
2017-Dec-16 03:30N 37°52' W 122°20'1 1.4
2017-Dec-16 03:00N 37°52' W 122°19'0 0.0
2017-Dec-16 02:30N 37°52' W 122°19'0 0.0
2017-Dec-16 02:01N 37°52' W 122°19'0 0.0
2017-Dec-16 01:30N 37°52' W 122°19'0 0.0
2017-Dec-16 01:00N 37°52' W 122°19'0 0.0
2017-Dec-16 00:30N 37°52' W 122°19'0 0.0
2017-Dec-16 00:01N 37°52' W 122°19'0 0.0
2017-Dec-15 23:31N 37°52' W 122°19'0 0.0
2017-Dec-15 23:00N 37°52' W 122°19'0 0.0
2017-Dec-15 22:31N 37°52' W 122°19'0 0.0
2017-Dec-15 22:00N 37°52' W 122°19'0 0.0
2017-Dec-15 21:30N 37°52' W 122°19'0 0.0
2017-Dec-15 21:00N 37°52' W 122°19'0 0.0
2017-Dec-15 20:31N 37°52' W 122°19'0 0.0
2017-Dec-15 20:00N 37°52' W 122°19'0 0.0
2017-Dec-15 19:31N 37°52' W 122°19'0 0.0
2017-Dec-15 19:01N 37°52' W 122°19'0 0.0
2017-Dec-15 18:30N 37°52' W 122°19'0 0.0
2017-Dec-15 18:00N 37°52' W 122°19'0 0.0
2017-Dec-15 17:31N 37°52' W 122°19'0 0.0
2017-Dec-15 17:00N 37°52' W 122°19'0 0.0
2017-Dec-15 16:30N 37°52' W 122°19'0 0.0
2017-Dec-15 16:01N 37°52' W 122°19'0 0.0
2017-Dec-15 15:31N 37°52' W 122°19'0 0.0
2017-Dec-15 15:00N 37°52' W 122°19'0 0.0
2017-Dec-15 14:30N 37°52' W 122°19'0 0.0
2017-Dec-15 14:01N 37°52' W 122°19'0 0.0
2017-Dec-15 13:30N 37°52' W 122°19'0 0.0
2017-Dec-15 13:00N 37°52' W 122°19'0 0.0
2017-Dec-15 12:30N 37°52' W 122°19'0 0.0
2017-Dec-15 12:00N 37°52' W 122°19'0 0.0
2017-Dec-15 11:30N 37°52' W 122°19'0 0.0
2017-Dec-15 11:00N 37°52' W 122°19'0 0.0
2017-Dec-15 10:30N 37°52' W 122°19'0 0.0
2017-Dec-15 10:01N 37°52' W 122°19'0 0.0
2017-Dec-15 09:31N 37°52' W 122°19'0 0.0
2017-Dec-15 09:00N 37°52' W 122°19'0 0.0
2017-Dec-15 08:30N 37°52' W 122°19'2 4.9
2017-Dec-15 08:01N 37°51' W 122°22'3 7.0
2017-Dec-15 07:30N 37°48' W 122°24'0 0.3
2017-Dec-15 07:00N 37°48' W 122°24'1 2.7
2017-Dec-15 06:30N 37°47' W 122°23'3 5.4
2017-Dec-15 06:00N 37°49' W 122°25'4 7.1
2017-Dec-15 05:30N 37°51' W 122°29'2 4.4
2017-Dec-15 05:00N 37°50' W 122°26'3 6.0
2017-Dec-15 04:30N 37°48' W 122°24'0 0.1
2017-Dec-15 04:00N 37°48' W 122°24'6 3.8
2017-Dec-15 02:30N 37°52' W 122°19'0 0.0
2017-Dec-15 01:00N 37°52' W 122°19'0 0.0
2017-Dec-15 00:30N 37°52' W 122°19'5 0.9
2017-Dec-14 18:30N 37°48' W 122°24'4 8.1
2017-Dec-14 18:00N 37°51' W 122°21'2 3.1
2017-Dec-14 17:30N 37°52' W 122°19'0 0.0
2017-Dec-14 17:00N 37°52' W 122°19'0 0.0
2017-Dec-14 16:30N 37°52' W 122°19'0 0.0
2017-Dec-14 16:00N 37°52' W 122°19'0 0.0
2017-Dec-14 15:00N 37°52' W 122°19'0 0.0
2017-Dec-14 14:30N 37°52' W 122°19'0 0.0
2017-Dec-14 14:00N 37°52' W 122°19'0 0.0
2017-Dec-14 13:30N 37°52' W 122°19'0 0.0
2017-Dec-14 13:00N 37°52' W 122°19'0 0.0
2017-Dec-14 12:30N 37°52' W 122°19'0 0.0
2017-Dec-14 12:01N 37°52' W 122°19'0 0.0
2017-Dec-14 11:30N 37°52' W 122°19'0 0.0
2017-Dec-14 11:01N 37°52' W 122°19'0 0.0
2017-Dec-14 10:31N 37°52' W 122°19'0 0.0
2017-Dec-14 10:01N 37°52' W 122°19'0 0.0
2017-Dec-14 09:30N 37°52' W 122°19'0 0.0
2017-Dec-14 09:01N 37°52' W 122°19'0 0.0
2017-Dec-14 08:31N 37°52' W 122°19'0 0.0
2017-Dec-14 08:01N 37°52' W 122°19'0 0.0
2017-Dec-14 07:30N 37°52' W 122°19'0 0.0
2017-Dec-14 07:01N 37°52' W 122°19'0 0.0
2017-Dec-14 06:31N 37°52' W 122°19'0 0.0
2017-Dec-14 06:00N 37°52' W 122°19'0 0.0
2017-Dec-14 05:30N 37°52' W 122°19'0 0.0
2017-Dec-14 05:00N 37°52' W 122°19'0 0.0
2017-Dec-14 04:30N 37°52' W 122°19'0 0.0
2017-Dec-14 04:01N 37°52' W 122°19'0 0.0
2017-Dec-14 03:30N 37°52' W 122°19'0 0.0
2017-Dec-14 03:00N 37°52' W 122°19'0 0.0
2017-Dec-14 02:30N 37°52' W 122°19'0 0.0
2017-Dec-14 02:00N 37°52' W 122°19'0 0.0
2017-Dec-14 01:30N 37°52' W 122°19'0 0.0
2017-Dec-14 01:00N 37°52' W 122°19'0 0.0
2017-Dec-14 00:30N 37°52' W 122°19'0 0.0
2017-Dec-14 00:00N 37°52' W 122°19'0 0.0
2017-Dec-13 23:30N 37°52' W 122°19'3 6.1
2017-Dec-13 23:00N 37°51' W 122°22'3 5.7
2017-Dec-13 22:30N 37°48' W 122°24'0 0.5
2017-Dec-13 22:00N 37°48' W 122°24'2 3.4
2017-Dec-13 21:30N 37°50' W 122°24'2 4.4
2017-Dec-13 21:00N 37°48' W 122°22'1 2.6
2017-Dec-13 20:30N 37°48' W 122°24'0 0.1
2017-Dec-13 20:00N 37°48' W 122°24'3 5.7
2017-Dec-13 19:30N 37°51' W 122°22'3 6.3
2017-Dec-13 19:00N 37°52' W 122°19'0 0.0
2017-Dec-13 18:30N 37°52' W 122°19'0 0.0
2017-Dec-13 18:00N 37°52' W 122°19'0 0.0
2017-Dec-13 17:31N 37°52' W 122°19'0 0.0
2017-Dec-13 17:00N 37°52' W 122°19'0 0.0
2017-Dec-13 16:30N 37°52' W 122°19'0 0.0
2017-Dec-13 16:00N 37°52' W 122°19'0 0.0
2017-Dec-13 15:30N 37°52' W 122°19'0 0.0
2017-Dec-13 15:00N 37°52' W 122°19'0 0.0
2017-Dec-13 14:30N 37°52' W 122°19'0 0.0
2017-Dec-13 14:00N 37°52' W 122°19'0 0.0
2017-Dec-13 13:30N 37°52' W 122°19'0 0.0
2017-Dec-13 13:01N 37°52' W 122°19'0 0.0
2017-Dec-13 12:30N 37°52' W 122°19'0 0.0
2017-Dec-13 12:00N 37°52' W 122°19'0 0.0
2017-Dec-13 11:31N 37°52' W 122°19'0 0.0
2017-Dec-13 11:00N 37°52' W 122°19'0 0.0
2017-Dec-13 10:31N 37°52' W 122°19'0 0.0
2017-Dec-13 10:01N 37°52' W 122°19'0 0.0
2017-Dec-13 09:30N 37°52' W 122°19'0 0.0
2017-Dec-13 09:01N 37°52' W 122°19'0 0.0
2017-Dec-13 08:30N 37°52' W 122°19'0 0.0
2017-Dec-13 08:00N 37°52' W 122°19'0 0.0
2017-Dec-13 07:31N 37°52' W 122°19'0 0.0
2017-Dec-13 07:01N 37°52' W 122°19'0 0.0
2017-Dec-13 06:30N 37°52' W 122°19'0 0.0
2017-Dec-13 06:00N 37°52' W 122°19'0 0.0
2017-Dec-13 05:30N 37°52' W 122°19'0 0.0
2017-Dec-13 05:00N 37°52' W 122°19'0 0.0
2017-Dec-13 04:30N 37°52' W 122°19'0 0.0
2017-Dec-13 04:00N 37°52' W 122°19'0 0.0
2017-Dec-13 03:30N 37°52' W 122°19'0 0.0
2017-Dec-13 03:00N 37°52' W 122°19'0 0.0
2017-Dec-13 02:30N 37°52' W 122°19'0 0.0
2017-Dec-13 02:00N 37°52' W 122°19'0 0.0
2017-Dec-13 01:30N 37°52' W 122°19'0 0.0
2017-Dec-13 01:00N 37°52' W 122°19'0 0.0
2017-Dec-13 00:30N 37°52' W 122°19'0 0.0
2017-Dec-13 00:00N 37°52' W 122°19'0 0.0
2017-Dec-12 23:30N 37°52' W 122°19'0 0.0
2017-Dec-12 23:00N 37°52' W 122°19'0 0.0
2017-Dec-12 22:30N 37°52' W 122°19'0 0.0
2017-Dec-12 22:00N 37°52' W 122°19'0 0.0
2017-Dec-12 21:30N 37°52' W 122°19'0 0.0
2017-Dec-12 21:00N 37°52' W 122°19'0 0.0
2017-Dec-12 20:30N 37°52' W 122°19'0 0.0
2017-Dec-12 20:00N 37°52' W 122°19'0 0.0
2017-Dec-12 19:30N 37°52' W 122°19'0 0.0
2017-Dec-12 19:00N 37°52' W 122°19'0 0.0
2017-Dec-12 18:30N 37°52' W 122°19'0 0.0
2017-Dec-12 18:00N 37°52' W 122°19'0 0.0
2017-Dec-12 17:30N 37°52' W 122°19'0 0.0
2017-Dec-12 17:00N 37°52' W 122°19'0 0.0
2017-Dec-12 16:30N 37°52' W 122°19'0 0.0
2017-Dec-12 16:00N 37°52' W 122°19'0 0.0
2017-Dec-12 15:30N 37°52' W 122°19'0 0.0
2017-Dec-12 15:00N 37°52' W 122°19'0 0.0
2017-Dec-12 14:30N 37°52' W 122°19'0 0.0
2017-Dec-12 14:00N 37°52' W 122°19'0 0.0
2017-Dec-12 13:30N 37°52' W 122°19'0 0.0
2017-Dec-12 13:00N 37°52' W 122°19'0 0.0
2017-Dec-12 12:30N 37°52' W 122°19'0 0.0
2017-Dec-12 12:00N 37°52' W 122°19'0 0.0
2017-Dec-12 11:30N 37°52' W 122°19'0 0.0
2017-Dec-12 11:00N 37°52' W 122°19'0 0.0
2017-Dec-12 10:30N 37°52' W 122°19'0 0.0
2017-Dec-12 10:00N 37°52' W 122°19'0 0.0
2017-Dec-12 09:30N 37°52' W 122°19'0 0.0
2017-Dec-12 09:00N 37°52' W 122°19'0 0.0
2017-Dec-12 08:30N 37°52' W 122°19'0 0.0
2017-Dec-12 08:00N 37°52' W 122°19'0 0.0
2017-Dec-12 07:30N 37°52' W 122°19'0 0.0
2017-Dec-12 07:00N 37°52' W 122°19'0 0.0
2017-Dec-12 06:30N 37°52' W 122°19'0 0.0
2017-Dec-12 06:00N 37°52' W 122°19'0 0.0
2017-Dec-12 05:30N 37°52' W 122°19'0 0.0
2017-Dec-12 05:00N 37°52' W 122°19'0 0.0
2017-Dec-12 04:30N 37°52' W 122°19'0 0.0
2017-Dec-12 04:00N 37°52' W 122°19'0 0.0
2017-Dec-12 03:30N 37°52' W 122°19'0 0.0
2017-Dec-12 03:00N 37°52' W 122°19'0 0.0
2017-Dec-12 02:30N 37°52' W 122°19'0 0.0
2017-Dec-12 02:00N 37°52' W 122°19'0 0.0
2017-Dec-12 01:30N 37°52' W 122°19'0 0.0
2017-Dec-12 01:00N 37°52' W 122°19'0 0.0
2017-Dec-12 00:30N 37°52' W 122°19'0 0.0
2017-Dec-12 00:00N 37°52' W 122°19'0 0.0
2017-Dec-11 23:30N 37°52' W 122°19'0 0.0
2017-Dec-11 23:00N 37°52' W 122°19'0 0.0
2017-Dec-11 22:30N 37°52' W 122°19'0 0.0
2017-Dec-11 22:00N 37°52' W 122°19'0 0.0
2017-Dec-11 21:30N 37°52' W 122°19'0 0.0
2017-Dec-11 21:00N 37°52' W 122°19'0 0.0
2017-Dec-11 20:30N 37°52' W 122°19'0 0.0
2017-Dec-11 20:00N 37°52' W 122°19'0 0.0
2017-Dec-11 19:30N 37°52' W 122°19'0 0.0
2017-Dec-11 19:00N 37°52' W 122°19'0 0.0
2017-Dec-11 18:30N 37°52' W 122°19'0 0.0
2017-Dec-11 18:00N 37°52' W 122°19'0 0.0
2017-Dec-11 17:30N 37°52' W 122°19'0 0.0
2017-Dec-11 17:00N 37°52' W 122°19'0 0.0
2017-Dec-11 16:30N 37°52' W 122°19'0 0.0
2017-Dec-11 16:00N 37°52' W 122°19'0 0.0
2017-Dec-11 15:30N 37°52' W 122°19'0 0.0
2017-Dec-11 15:00N 37°52' W 122°19'0 0.0
2017-Dec-11 14:30N 37°52' W 122°19'0 0.0
2017-Dec-11 14:00N 37°52' W 122°19'0 0.0
2017-Dec-11 13:30N 37°52' W 122°19'0 0.0
2017-Dec-11 13:00N 37°52' W 122°19'0 0.0
2017-Dec-11 12:30N 37°52' W 122°19'0 0.0
2017-Dec-11 12:00N 37°52' W 122°19'0 0.0
2017-Dec-11 11:30N 37°52' W 122°19'0 0.0
2017-Dec-11 11:00N 37°52' W 122°19'0 0.0
2017-Dec-11 10:30N 37°52' W 122°19'0 0.0
2017-Dec-11 10:00N 37°52' W 122°19'0 0.0
2017-Dec-11 09:30N 37°52' W 122°19'0 0.0
2017-Dec-11 09:00N 37°52' W 122°19'0 0.0
2017-Dec-11 08:30N 37°52' W 122°19'0 0.0
2017-Dec-11 08:00N 37°52' W 122°19'0 0.0
2017-Dec-11 07:30N 37°52' W 122°19'0 0.0
2017-Dec-11 07:00N 37°52' W 122°19'0 0.0
2017-Dec-11 06:30N 37°52' W 122°19'0 0.0
2017-Dec-11 06:00N 37°52' W 122°19'0 0.0
2017-Dec-11 05:30N 37°52' W 122°19'0 0.0
2017-Dec-11 05:00N 37°52' W 122°19'0 0.0
2017-Dec-11 04:30N 37°52' W 122°19'0 0.0
2017-Dec-11 04:00N 37°52' W 122°19'0 0.0
2017-Dec-11 03:30N 37°52' W 122°19'0 0.0
2017-Dec-11 03:00N 37°52' W 122°19'0 0.0
2017-Dec-11 02:30N 37°52' W 122°19'0 0.0
2017-Dec-11 02:00N 37°52' W 122°19'0 0.0
2017-Dec-11 01:30N 37°52' W 122°19'0 0.0
2017-Dec-11 01:00N 37°52' W 122°19'0 0.0
2017-Dec-11 00:30N 37°52' W 122°19'0 0.0
2017-Dec-11 00:00N 37°52' W 122°19'0 0.0
2017-Dec-10 23:30N 37°52' W 122°19'0 0.0
2017-Dec-10 23:00N 37°52' W 122°19'0 0.0
2017-Dec-10 22:30N 37°52' W 122°19'0 0.0
2017-Dec-10 22:00N 37°52' W 122°19'0 0.0
2017-Dec-10 21:30N 37°52' W 122°19'0 0.0
2017-Dec-10 21:00N 37°52' W 122°19'0 0.0
2017-Dec-10 20:30N 37°52' W 122°19'0 0.0
2017-Dec-10 20:00N 37°52' W 122°19'0 0.0
2017-Dec-10 19:30N 37°52' W 122°19'0 0.0
2017-Dec-10 19:00N 37°52' W 122°19'0 0.0
2017-Dec-10 18:30N 37°52' W 122°19'0 0.0
2017-Dec-10 18:00N 37°52' W 122°19'0 0.0
2017-Dec-10 17:30N 37°52' W 122°19'0 0.0
2017-Dec-10 17:00N 37°52' W 122°19'0 0.0
2017-Dec-10 16:30N 37°52' W 122°19'0 0.0
2017-Dec-10 16:00N 37°52' W 122°19'0 0.0
2017-Dec-10 15:30N 37°52' W 122°19'0 0.0
2017-Dec-10 15:00N 37°52' W 122°19'0 0.0
2017-Dec-10 14:30N 37°52' W 122°19'0 0.0
2017-Dec-10 14:00N 37°52' W 122°19'0 0.0
2017-Dec-10 13:30N 37°52' W 122°19'0 0.0
2017-Dec-10 13:00N 37°52' W 122°19'0 0.0
2017-Dec-10 12:30N 37°52' W 122°19'0 0.0
2017-Dec-10 12:00N 37°52' W 122°19'0 0.0
2017-Dec-10 11:30N 37°52' W 122°19'0 0.0
2017-Dec-10 11:00N 37°52' W 122°19'0 0.0
2017-Dec-10 10:30N 37°52' W 122°19'0 0.0
2017-Dec-10 10:00N 37°52' W 122°19'0 0.0
2017-Dec-10 09:30N 37°52' W 122°19'0 0.0
2017-Dec-10 09:00N 37°52' W 122°19'0 0.0
2017-Dec-10 08:30N 37°52' W 122°19'0 0.0
2017-Dec-10 08:00N 37°52' W 122°19'0 0.6
2017-Dec-10 07:30N 37°52' W 122°19'3 6.4
2017-Dec-10 07:00N 37°49' W 122°22'2 4.5
2017-Dec-10 06:30N 37°47' W 122°23'3 5.8
2017-Dec-10 06:00N 37°50' W 122°25'3 5.0
2017-Dec-10 05:30N 37°50' W 122°28'4 7.2
2017-Dec-10 05:00N 37°52' W 122°25'4 7.7
2017-Dec-10 04:30N 37°51' W 122°21'2 3.1
2017-Dec-10 04:00N 37°52' W 122°19'0 0.0
2017-Dec-10 03:30N 37°52' W 122°19'0 0.0
2017-Dec-10 03:00N 37°52' W 122°19'0 0.0
2017-Dec-10 02:30N 37°52' W 122°19'0 0.0
2017-Dec-10 02:00N 37°52' W 122°19'0 0.0
2017-Dec-10 01:30N 37°52' W 122°19'0 0.0
2017-Dec-10 01:00N 37°52' W 122°19'0 0.0
2017-Dec-10 00:30N 37°52' W 122°19'0 0.0
2017-Dec-10 00:00N 37°52' W 122°19'0 0.0
2017-Dec-09 23:30N 37°52' W 122°19'0 0.0
2017-Dec-09 23:00N 37°52' W 122°19'0 0.0
2017-Dec-09 22:30N 37°52' W 122°19'0 0.0
2017-Dec-09 22:00N 37°52' W 122°19'0 0.0
2017-Dec-09 21:30N 37°52' W 122°19'0 0.0
2017-Dec-09 21:00N 37°52' W 122°19'0 0.0
2017-Dec-09 20:30N 37°52' W 122°19'0 0.0
2017-Dec-09 20:00N 37°52' W 122°19'0 0.0
2017-Dec-09 19:30N 37°52' W 122°19'0 0.0
2017-Dec-09 19:00N 37°52' W 122°19'0 0.0
2017-Dec-09 18:30N 37°52' W 122°19'0 0.0
2017-Dec-09 18:00N 37°52' W 122°19'0 0.0
2017-Dec-09 17:30N 37°52' W 122°19'0 0.0
2017-Dec-09 17:00N 37°52' W 122°19'0 0.0
2017-Dec-09 16:30N 37°52' W 122°19'0 0.0
2017-Dec-09 16:00N 37°52' W 122°19'0 0.0
2017-Dec-09 15:30N 37°52' W 122°19'0 0.0
2017-Dec-09 15:00N 37°52' W 122°19'0 0.0
2017-Dec-09 14:30N 37°52' W 122°19'0 0.0
2017-Dec-09 14:00N 37°52' W 122°19'0 0.0
2017-Dec-09 13:30N 37°52' W 122°19'0 0.0
2017-Dec-09 13:00N 37°52' W 122°19'0 0.0
2017-Dec-09 12:30N 37°52' W 122°19'0 0.0
2017-Dec-09 12:00N 37°52' W 122°19'0 0.0
2017-Dec-09 11:30N 37°52' W 122°19'0 0.0
2017-Dec-09 11:00N 37°52' W 122°19'0 0.0
2017-Dec-09 10:30N 37°52' W 122°19'0 0.0
2017-Dec-09 10:00N 37°52' W 122°19'0 0.0
2017-Dec-09 09:30N 37°52' W 122°19'0 0.0
2017-Dec-09 09:00N 37°52' W 122°19'0 0.0
2017-Dec-09 08:30N 37°52' W 122°19'0 0.0
2017-Dec-09 08:00N 37°52' W 122°19'0 0.0
2017-Dec-09 07:30N 37°52' W 122°19'0 0.0
2017-Dec-09 07:00N 37°52' W 122°19'1 1.2
2017-Dec-09 06:30N 37°52' W 122°19'3 5.6
2017-Dec-09 06:00N 37°51' W 122°23'3 5.0
2017-Dec-09 05:30N 37°50' W 122°26'2 3.6
2017-Dec-09 05:01N 37°49' W 122°28'5 9.0
2017-Dec-09 04:30N 37°48' W 122°22'3 6.8
2017-Dec-09 04:00N 37°51' W 122°21'2 3.2
2017-Dec-09 03:31N 37°52' W 122°19'0 0.0
2017-Dec-09 03:00N 37°52' W 122°19'0 0.0
2017-Dec-09 02:30N 37°52' W 122°19'0 0.0
2017-Dec-09 02:00N 37°52' W 122°19'0 0.0
2017-Dec-09 01:30N 37°52' W 122°19'0 0.0
2017-Dec-09 01:00N 37°52' W 122°19'0 0.0
2017-Dec-09 00:30N 37°52' W 122°19'0 0.0
2017-Dec-09 00:00N 37°52' W 122°19'0 0.0
2017-Dec-08 23:30N 37°52' W 122°19'0 0.0
2017-Dec-08 23:00N 37°52' W 122°19'0 0.0
2017-Dec-08 22:30N 37°52' W 122°19'0 0.0
2017-Dec-08 22:01N 37°52' W 122°19'0 0.0
2017-Dec-08 21:30N 37°52' W 122°19'0 0.0
2017-Dec-08 21:00N 37°52' W 122°19'0 0.0
2017-Dec-08 20:31N 37°52' W 122°19'0 0.0
2017-Dec-08 20:00N 37°52' W 122°19'0 0.0
2017-Dec-08 19:30N 37°52' W 122°19'0 0.0
2017-Dec-08 19:01N 37°52' W 122°19'0 0.0
2017-Dec-08 18:30N 37°52' W 122°19'0 0.0
2017-Dec-08 18:00N 37°52' W 122°19'0 0.0
2017-Dec-08 17:30N 37°52' W 122°19'0 0.0
2017-Dec-08 17:00N 37°52' W 122°19'0 0.0
2017-Dec-08 16:30N 37°52' W 122°19'0 0.0
2017-Dec-08 16:00N 37°52' W 122°19'0 0.0
2017-Dec-08 15:30N 37°52' W 122°19'0 0.0
2017-Dec-08 15:00N 37°52' W 122°19'0 0.0
2017-Dec-08 14:30N 37°52' W 122°19'0 0.0
2017-Dec-08 14:01N 37°52' W 122°19'0 0.0
2017-Dec-08 13:30N 37°52' W 122°19'0 0.0
2017-Dec-08 13:01N 37°52' W 122°19'0 0.0
2017-Dec-08 12:30N 37°52' W 122°19'0 0.0
2017-Dec-08 12:00N 37°52' W 122°19'0 0.0
2017-Dec-08 11:30N 37°52' W 122°19'0 0.0
2017-Dec-08 11:00N 37°52' W 122°19'0 0.0
2017-Dec-08 10:30N 37°52' W 122°19'0 0.0
2017-Dec-08 10:00N 37°52' W 122°19'0 0.0
2017-Dec-08 09:30N 37°52' W 122°19'0 0.0
2017-Dec-08 09:00N 37°52' W 122°19'0 0.0
2017-Dec-08 08:31N 37°52' W 122°19'0 0.0
2017-Dec-08 08:00N 37°52' W 122°19'0 0.0
2017-Dec-08 07:30N 37°52' W 122°19'0 0.0
2017-Dec-08 07:01N 37°52' W 122°19'0 0.0
2017-Dec-08 06:31N 37°52' W 122°19'0 0.0
2017-Dec-08 06:00N 37°52' W 122°19'0 0.0
2017-Dec-08 05:30N 37°52' W 122°19'0 0.0
2017-Dec-08 05:00N 37°52' W 122°19'0 0.1
2017-Dec-08 04:31N 37°52' W 122°19'3 6.7
2017-Dec-08 04:01N 37°50' W 122°23'3 4.9
2017-Dec-08 03:29N 37°48' W 122°24'1 1.4
2017-Dec-08 03:01N 37°48' W 122°23'2 3.9
2017-Dec-08 02:31N 37°49' W 122°25'3 6.8
2017-Dec-08 02:00N 37°52' W 122°26'2 5.0
2017-Dec-08 01:31N 37°52' W 122°29'3 6.0
2017-Dec-08 01:01N 37°49' W 122°28'3 6.9
2017-Dec-08 00:31N 37°48' W 122°24'0 0.2
2017-Dec-08 00:00N 37°48' W 122°24'2 4.2
2017-Dec-07 23:30N 37°50' W 122°23'4 7.6
2017-Dec-07 23:01N 37°52' W 122°19'0 0.0
2017-Dec-07 22:31N 37°52' W 122°19'0 0.0
2017-Dec-07 22:01N 37°52' W 122°19'0 0.0
2017-Dec-07 21:30N 37°52' W 122°19'0 0.0
2017-Dec-07 21:00N 37°52' W 122°19'0 0.0
2017-Dec-07 20:30N 37°52' W 122°19'0 0.0
2017-Dec-07 20:01N 37°52' W 122°19'0 0.0
2017-Dec-07 19:31N 37°52' W 122°19'0 0.0
2017-Dec-07 19:01N 37°52' W 122°19'0 0.0
2017-Dec-07 18:30N 37°52' W 122°19'0 0.0
2017-Dec-07 18:01N 37°52' W 122°19'0 0.0
2017-Dec-07 17:30N 37°52' W 122°19'0 0.0
2017-Dec-07 17:00N 37°52' W 122°19'0 0.0
2017-Dec-07 16:31N 37°52' W 122°19'0 0.0
2017-Dec-07 16:01N 37°52' W 122°19'0 0.0
2017-Dec-07 15:31N 37°52' W 122°19'0 0.0
2017-Dec-07 15:00N 37°52' W 122°19'0 0.0
2017-Dec-07 14:31N 37°52' W 122°19'0 0.0
2017-Dec-07 14:00N 37°52' W 122°19'0 0.0
2017-Dec-07 13:31N 37°52' W 122°19'0 0.0
2017-Dec-07 13:01N 37°52' W 122°19'0 0.0
2017-Dec-07 12:31N 37°52' W 122°19'0 0.0
2017-Dec-07 12:01N 37°52' W 122°19'0 0.0
2017-Dec-07 11:31N 37°52' W 122°19'0 0.0
2017-Dec-07 11:01N 37°52' W 122°19'0 0.0
2017-Dec-07 10:31N 37°52' W 122°19'0 0.0
2017-Dec-07 10:01N 37°52' W 122°19'0 0.0
2017-Dec-07 09:31N 37°52' W 122°19'0 0.0
2017-Dec-07 09:00N 37°52' W 122°19'0 0.0
2017-Dec-07 08:31N 37°52' W 122°19'0 0.0
2017-Dec-07 08:01N 37°52' W 122°19'0 0.0
2017-Dec-07 07:31N 37°52' W 122°19'0 0.0
2017-Dec-07 07:01N 37°52' W 122°19'0 0.0
2017-Dec-07 06:31N 37°52' W 122°19'0 0.0
2017-Dec-07 06:01N 37°52' W 122°19'0 0.0
2017-Dec-07 05:30N 37°52' W 122°19'0 0.0
2017-Dec-07 05:01N 37°52' W 122°19'0 0.0
2017-Dec-07 04:31N 37°52' W 122°19'0 0.0
2017-Dec-07 04:01N 37°52' W 122°19'0 0.0
2017-Dec-07 03:30N 37°52' W 122°19'0 0.0
2017-Dec-07 03:01N 37°52' W 122°19'0 0.0
2017-Dec-07 02:31N 37°52' W 122°19'0 0.0
2017-Dec-07 02:01N 37°52' W 122°19'0 0.0
2017-Dec-07 01:31N 37°52' W 122°19'0 0.0
2017-Dec-07 01:01N 37°52' W 122°19'2 5.0
2017-Dec-07 00:31N 37°51' W 122°22'4 7.4
2017-Dec-07 00:01N 37°49' W 122°26'3 6.0
2017-Dec-06 23:30N 37°51' W 122°23'3 6.4
2017-Dec-06 23:01N 37°52' W 122°19'0 0.0
2017-Dec-06 22:31N 37°52' W 122°19'0 0.0
2017-Dec-06 22:01N 37°52' W 122°19'0 0.0
2017-Dec-06 21:31N 37°52' W 122°19'0 0.0
2017-Dec-06 21:01N 37°52' W 122°19'  
Track history (hours):
 
Tides and Currents Weather Stations Pressure Air Temp Water Temp Dewpoint Dewpoint Depression Visibility Wind Speed Wind Dir Waves Ship Positions

Pacific Hornblower

Owner: HORNBLOWER CRUISES AND EVENTS, SAN DIEGO, CA. More information available from US FCC via Universal Licensing System and Coast Guard Vessel Documentation Center.

Last reported at 2017-Dec-16 05:00 UTC. Time now 2017-Dec-16 05:11 UTC.
Position N 37°50' W 122°27'.

Length 30 m.

Type: Wing in ground effect craft. MMSI: 367107280.

Date/timePositionNaut miles runAvg speedWind from/ knotsBaromVisibWave heightAir tempDewpointWater temp
2017-Dec-16 05:00N 37°50' W 122°27'2 4.2
2017-Dec-16 04:30N 37°51' W 122°28'3 6.7
2017-Dec-16 04:00N 37°52' W 122°24'4 7.3
2017-Dec-16 03:30N 37°52' W 122°20'1 1.4
2017-Dec-16 03:00N 37°52' W 122°19'0 0.0
2017-Dec-16 02:30N 37°52' W 122°19'0 0.0
2017-Dec-16 02:01N 37°52' W 122°19'0 0.0
2017-Dec-16 01:30N 37°52' W 122°19'0 0.0
2017-Dec-16 01:00N 37°52' W 122°19'0 0.0
2017-Dec-16 00:30N 37°52' W 122°19'0 0.0
2017-Dec-16 00:01N 37°52' W 122°19'0 0.0
2017-Dec-15 23:31N 37°52' W 122°19'0 0.0
2017-Dec-15 23:00N 37°52' W 122°19'0 0.0
2017-Dec-15 22:31N 37°52' W 122°19'0 0.0
2017-Dec-15 22:00N 37°52' W 122°19'0 0.0
2017-Dec-15 21:30N 37°52' W 122°19'0 0.0
2017-Dec-15 21:00N 37°52' W 122°19'0 0.0
2017-Dec-15 20:31N 37°52' W 122°19'0 0.0
2017-Dec-15 20:00N 37°52' W 122°19'0 0.0
2017-Dec-15 19:31N 37°52' W 122°19'0 0.0
2017-Dec-15 19:01N 37°52' W 122°19'0 0.0
2017-Dec-15 18:30N 37°52' W 122°19'0 0.0
2017-Dec-15 18:00N 37°52' W 122°19'0 0.0
2017-Dec-15 17:31N 37°52' W 122°19'0 0.0
2017-Dec-15 17:00N 37°52' W 122°19'0 0.0
2017-Dec-15 16:30N 37°52' W 122°19'0 0.0
2017-Dec-15 16:01N 37°52' W 122°19'0 0.0
2017-Dec-15 15:31N 37°52' W 122°19'0 0.0
2017-Dec-15 15:00N 37°52' W 122°19'0 0.0
2017-Dec-15 14:30N 37°52' W 122°19'0 0.0
2017-Dec-15 14:01N 37°52' W 122°19'0 0.0
2017-Dec-15 13:30N 37°52' W 122°19'0 0.0
2017-Dec-15 13:00N 37°52' W 122°19'0 0.0
2017-Dec-15 12:30N 37°52' W 122°19'0 0.0
2017-Dec-15 12:00N 37°52' W 122°19'0 0.0
2017-Dec-15 11:30N 37°52' W 122°19'0 0.0
2017-Dec-15 11:00N 37°52' W 122°19'0 0.0
2017-Dec-15 10:30N 37°52' W 122°19'0 0.0
2017-Dec-15 10:01N 37°52' W 122°19'0 0.0
2017-Dec-15 09:31N 37°52' W 122°19'0 0.0
2017-Dec-15 09:00N 37°52' W 122°19'0 0.0
2017-Dec-15 08:30N 37°52' W 122°19'2 4.9
2017-Dec-15 08:01N 37°51' W 122°22'3 7.0
2017-Dec-15 07:30N 37°48' W 122°24'0 0.3
2017-Dec-15 07:00N 37°48' W 122°24'1 2.7
2017-Dec-15 06:30N 37°47' W 122°23'3 5.4
2017-Dec-15 06:00N 37°49' W 122°25'4 7.1
2017-Dec-15 05:30N 37°51' W 122°29'2 4.4
2017-Dec-15 05:00N 37°50' W 122°26'3 6.0
2017-Dec-15 04:30N 37°48' W 122°24'0 0.1
2017-Dec-15 04:00N 37°48' W 122°24'6 3.8
2017-Dec-15 02:30N 37°52' W 122°19'0 0.0
2017-Dec-15 01:00N 37°52' W 122°19'0 0.0
2017-Dec-15 00:30N 37°52' W 122°19'5 0.9
2017-Dec-14 18:30N 37°48' W 122°24'4 8.1
2017-Dec-14 18:00N 37°51' W 122°21'2 3.1
2017-Dec-14 17:30N 37°52' W 122°19'0 0.0
2017-Dec-14 17:00N 37°52' W 122°19'0 0.0
2017-Dec-14 16:30N 37°52' W 122°19'0 0.0
2017-Dec-14 16:00N 37°52' W 122°19'0 0.0
2017-Dec-14 15:00N 37°52' W 122°19'0 0.0
2017-Dec-14 14:30N 37°52' W 122°19'0 0.0
2017-Dec-14 14:00N 37°52' W 122°19'0 0.0
2017-Dec-14 13:30N 37°52' W 122°19'0 0.0
2017-Dec-14 13:00N 37°52' W 122°19'0 0.0
2017-Dec-14 12:30N 37°52' W 122°19'0 0.0
2017-Dec-14 12:01N 37°52' W 122°19'0 0.0
2017-Dec-14 11:30N 37°52' W 122°19'0 0.0
2017-Dec-14 11:01N 37°52' W 122°19'0 0.0
2017-Dec-14 10:31N 37°52' W 122°19'0 0.0
2017-Dec-14 10:01N 37°52' W 122°19'0 0.0
2017-Dec-14 09:30N 37°52' W 122°19'0 0.0
2017-Dec-14 09:01N 37°52' W 122°19'0 0.0
2017-Dec-14 08:31N 37°52' W 122°19'0 0.0
2017-Dec-14 08:01N 37°52' W 122°19'0 0.0
2017-Dec-14 07:30N 37°52' W 122°19'0 0.0
2017-Dec-14 07:01N 37°52' W 122°19'0 0.0
2017-Dec-14 06:31N 37°52' W 122°19'0 0.0
2017-Dec-14 06:00N 37°52' W 122°19'0 0.0
2017-Dec-14 05:30N 37°52' W 122°19'0 0.0
2017-Dec-14 05:00N 37°52' W 122°19'0 0.0
2017-Dec-14 04:30N 37°52' W 122°19'0 0.0
2017-Dec-14 04:01N 37°52' W 122°19'0 0.0
2017-Dec-14 03:30N 37°52' W 122°19'0 0.0
2017-Dec-14 03:00N 37°52' W 122°19'0 0.0
2017-Dec-14 02:30N 37°52' W 122°19'0 0.0
2017-Dec-14 02:00N 37°52' W 122°19'0 0.0
2017-Dec-14 01:30N 37°52' W 122°19'0 0.0
2017-Dec-14 01:00N 37°52' W 122°19'0 0.0
2017-Dec-14 00:30N 37°52' W 122°19'0 0.0
2017-Dec-14 00:00N 37°52' W 122°19'0 0.0
2017-Dec-13 23:30N 37°52' W 122°19'3 6.1
2017-Dec-13 23:00N 37°51' W 122°22'3 5.7
2017-Dec-13 22:30N 37°48' W 122°24'0 0.5
2017-Dec-13 22:00N 37°48' W 122°24'2 3.4
2017-Dec-13 21:30N 37°50' W 122°24'2 4.4
2017-Dec-13 21:00N 37°48' W 122°22'1 2.6
2017-Dec-13 20:30N 37°48' W 122°24'0 0.1
2017-Dec-13 20:00N 37°48' W 122°24'3 5.7
2017-Dec-13 19:30N 37°51' W 122°22'3 6.3
2017-Dec-13 19:00N 37°52' W 122°19'0 0.0
2017-Dec-13 18:30N 37°52' W 122°19'0 0.0
2017-Dec-13 18:00N 37°52' W 122°19'0 0.0
2017-Dec-13 17:31N 37°52' W 122°19'0 0.0
2017-Dec-13 17:00N 37°52' W 122°19'0 0.0
2017-Dec-13 16:30N 37°52' W 122°19'0 0.0
2017-Dec-13 16:00N 37°52' W 122°19'0 0.0
2017-Dec-13 15:30N 37°52' W 122°19'0 0.0
2017-Dec-13 15:00N 37°52' W 122°19'0 0.0
2017-Dec-13 14:30N 37°52' W 122°19'0 0.0
2017-Dec-13 14:00N 37°52' W 122°19'0 0.0
2017-Dec-13 13:30N 37°52' W 122°19'0 0.0
2017-Dec-13 13:01N 37°52' W 122°19'0 0.0
2017-Dec-13 12:30N 37°52' W 122°19'0 0.0
2017-Dec-13 12:00N 37°52' W 122°19'0 0.0
2017-Dec-13 11:31N 37°52' W 122°19'0 0.0
2017-Dec-13 11:00N 37°52' W 122°19'0 0.0
2017-Dec-13 10:31N 37°52' W 122°19'0 0.0
2017-Dec-13 10:01N 37°52' W 122°19'0 0.0
2017-Dec-13 09:30N 37°52' W 122°19'0 0.0
2017-Dec-13 09:01N 37°52' W 122°19'0 0.0
2017-Dec-13 08:30N 37°52' W 122°19'0 0.0
2017-Dec-13 08:00N 37°52' W 122°19'0 0.0
2017-Dec-13 07:31N 37°52' W 122°19'0 0.0
2017-Dec-13 07:01N 37°52' W 122°19'0 0.0
2017-Dec-13 06:30N 37°52' W 122°19'0 0.0
2017-Dec-13 06:00N 37°52' W 122°19'0 0.0
2017-Dec-13 05:30N 37°52' W 122°19'0 0.0
2017-Dec-13 05:00N 37°52' W 122°19'0 0.0
2017-Dec-13 04:30N 37°52' W 122°19'0 0.0
2017-Dec-13 04:00N 37°52' W 122°19'0 0.0
2017-Dec-13 03:30N 37°52' W 122°19'0 0.0
2017-Dec-13 03:00N 37°52' W 122°19'0 0.0
2017-Dec-13 02:30N 37°52' W 122°19'0 0.0
2017-Dec-13 02:00N 37°52' W 122°19'0 0.0
2017-Dec-13 01:30N 37°52' W 122°19'0 0.0
2017-Dec-13 01:00N 37°52' W 122°19'0 0.0
2017-Dec-13 00:30N 37°52' W 122°19'0 0.0
2017-Dec-13 00:00N 37°52' W 122°19'0 0.0
2017-Dec-12 23:30N 37°52' W 122°19'0 0.0
2017-Dec-12 23:00N 37°52' W 122°19'0 0.0
2017-Dec-12 22:30N 37°52' W 122°19'0 0.0
2017-Dec-12 22:00N 37°52' W 122°19'0 0.0
2017-Dec-12 21:30N 37°52' W 122°19'0 0.0
2017-Dec-12 21:00N 37°52' W 122°19'0 0.0
2017-Dec-12 20:30N 37°52' W 122°19'0 0.0
2017-Dec-12 20:00N 37°52' W 122°19'0 0.0
2017-Dec-12 19:30N 37°52' W 122°19'0 0.0
2017-Dec-12 19:00N 37°52' W 122°19'0 0.0
2017-Dec-12 18:30N 37°52' W 122°19'0 0.0
2017-Dec-12 18:00N 37°52' W 122°19'0 0.0
2017-Dec-12 17:30N 37°52' W 122°19'0 0.0
2017-Dec-12 17:00N 37°52' W 122°19'0 0.0
2017-Dec-12 16:30N 37°52' W 122°19'0 0.0
2017-Dec-12 16:00N 37°52' W 122°19'0 0.0
2017-Dec-12 15:30N 37°52' W 122°19'0 0.0
2017-Dec-12 15:00N 37°52' W 122°19'0 0.0
2017-Dec-12 14:30N 37°52' W 122°19'0 0.0
2017-Dec-12 14:00N 37°52' W 122°19'0 0.0
2017-Dec-12 13:30N 37°52' W 122°19'0 0.0
2017-Dec-12 13:00N 37°52' W 122°19'0 0.0
2017-Dec-12 12:30N 37°52' W 122°19'0 0.0
2017-Dec-12 12:00N 37°52' W 122°19'0 0.0
2017-Dec-12 11:30N 37°52' W 122°19'0 0.0
2017-Dec-12 11:00N 37°52' W 122°19'0 0.0
2017-Dec-12 10:30N 37°52' W 122°19'0 0.0
2017-Dec-12 10:00N 37°52' W 122°19'0 0.0
2017-Dec-12 09:30N 37°52' W 122°19'0 0.0
2017-Dec-12 09:00N 37°52' W 122°19'0 0.0
2017-Dec-12 08:30N 37°52' W 122°19'0 0.0
2017-Dec-12 08:00N 37°52' W 122°19'0 0.0
2017-Dec-12 07:30N 37°52' W 122°19'0 0.0
2017-Dec-12 07:00N 37°52' W 122°19'0 0.0
2017-Dec-12 06:30N 37°52' W 122°19'0 0.0
2017-Dec-12 06:00N 37°52' W 122°19'0 0.0
2017-Dec-12 05:30N 37°52' W 122°19'0 0.0
2017-Dec-12 05:00N 37°52' W 122°19'0 0.0
2017-Dec-12 04:30N 37°52' W 122°19'0 0.0
2017-Dec-12 04:00N 37°52' W 122°19'0 0.0
2017-Dec-12 03:30N 37°52' W 122°19'0 0.0
2017-Dec-12 03:00N 37°52' W 122°19'0 0.0
2017-Dec-12 02:30N 37°52' W 122°19'0 0.0
2017-Dec-12 02:00N 37°52' W 122°19'0 0.0
2017-Dec-12 01:30N 37°52' W 122°19'0 0.0
2017-Dec-12 01:00N 37°52' W 122°19'0 0.0
2017-Dec-12 00:30N 37°52' W 122°19'0 0.0
2017-Dec-12 00:00N 37°52' W 122°19'0 0.0
2017-Dec-11 23:30N 37°52' W 122°19'0 0.0
2017-Dec-11 23:00N 37°52' W 122°19'0 0.0
2017-Dec-11 22:30N 37°52' W 122°19'0 0.0
2017-Dec-11 22:00N 37°52' W 122°19'0 0.0
2017-Dec-11 21:30N 37°52' W 122°19'0 0.0
2017-Dec-11 21:00N 37°52' W 122°19'0 0.0
2017-Dec-11 20:30N 37°52' W 122°19'0 0.0
2017-Dec-11 20:00N 37°52' W 122°19'0 0.0
2017-Dec-11 19:30N 37°52' W 122°19'0 0.0
2017-Dec-11 19:00N 37°52' W 122°19'0 0.0
2017-Dec-11 18:30N 37°52' W 122°19'0 0.0
2017-Dec-11 18:00N 37°52' W 122°19'0 0.0
2017-Dec-11 17:30N 37°52' W 122°19'0 0.0
2017-Dec-11 17:00N 37°52' W 122°19'0 0.0
2017-Dec-11 16:30N 37°52' W 122°19'0 0.0
2017-Dec-11 16:00N 37°52' W 122°19'0 0.0
2017-Dec-11 15:30N 37°52' W 122°19'0 0.0
2017-Dec-11 15:00N 37°52' W 122°19'0 0.0
2017-Dec-11 14:30N 37°52' W 122°19'0 0.0
2017-Dec-11 14:00N 37°52' W 122°19'0 0.0
2017-Dec-11 13:30N 37°52' W 122°19'0 0.0
2017-Dec-11 13:00N 37°52' W 122°19'0 0.0
2017-Dec-11 12:30N 37°52' W 122°19'0 0.0
2017-Dec-11 12:00N 37°52' W 122°19'0 0.0
2017-Dec-11 11:30N 37°52' W 122°19'0 0.0
2017-Dec-11 11:00N 37°52' W 122°19'0 0.0
2017-Dec-11 10:30N 37°52' W 122°19'0 0.0
2017-Dec-11 10:00N 37°52' W 122°19'0 0.0
2017-Dec-11 09:30N 37°52' W 122°19'0 0.0
2017-Dec-11 09:00N 37°52' W 122°19'0 0.0
2017-Dec-11 08:30N 37°52' W 122°19'0 0.0
2017-Dec-11 08:00N 37°52' W 122°19'0 0.0
2017-Dec-11 07:30N 37°52' W 122°19'0 0.0
2017-Dec-11 07:00N 37°52' W 122°19'0 0.0
2017-Dec-11 06:30N 37°52' W 122°19'0 0.0
2017-Dec-11 06:00N 37°52' W 122°19'0 0.0
2017-Dec-11 05:30N 37°52' W 122°19'0 0.0
2017-Dec-11 05:00N 37°52' W 122°19'0 0.0
2017-Dec-11 04:30N 37°52' W 122°19'0 0.0
2017-Dec-11 04:00N 37°52' W 122°19'0 0.0
2017-Dec-11 03:30N 37°52' W 122°19'0 0.0
2017-Dec-11 03:00N 37°52' W 122°19'0 0.0
2017-Dec-11 02:30N 37°52' W 122°19'0 0.0
2017-Dec-11 02:00N 37°52' W 122°19'0 0.0
2017-Dec-11 01:30N 37°52' W 122°19'0 0.0
2017-Dec-11 01:00N 37°52' W 122°19'0 0.0
2017-Dec-11 00:30N 37°52' W 122°19'0 0.0
2017-Dec-11 00:00N 37°52' W 122°19'0 0.0
2017-Dec-10 23:30N 37°52' W 122°19'0 0.0
2017-Dec-10 23:00N 37°52' W 122°19'0 0.0
2017-Dec-10 22:30N 37°52' W 122°19'0 0.0
2017-Dec-10 22:00N 37°52' W 122°19'0 0.0
2017-Dec-10 21:30N 37°52' W 122°19'0 0.0
2017-Dec-10 21:00N 37°52' W 122°19'0 0.0
2017-Dec-10 20:30N 37°52' W 122°19'0 0.0
2017-Dec-10 20:00N 37°52' W 122°19'0 0.0
2017-Dec-10 19:30N 37°52' W 122°19'0 0.0
2017-Dec-10 19:00N 37°52' W 122°19'0 0.0
2017-Dec-10 18:30N 37°52' W 122°19'0 0.0
2017-Dec-10 18:00N 37°52' W 122°19'0 0.0
2017-Dec-10 17:30N 37°52' W 122°19'0 0.0
2017-Dec-10 17:00N 37°52' W 122°19'0 0.0
2017-Dec-10 16:30N 37°52' W 122°19'0 0.0
2017-Dec-10 16:00N 37°52' W 122°19'0 0.0
2017-Dec-10 15:30N 37°52' W 122°19'0 0.0
2017-Dec-10 15:00N 37°52' W 122°19'0 0.0
2017-Dec-10 14:30N 37°52' W 122°19'0 0.0
2017-Dec-10 14:00N 37°52' W 122°19'0 0.0
2017-Dec-10 13:30N 37°52' W 122°19'0 0.0
2017-Dec-10 13:00N 37°52' W 122°19'0 0.0
2017-Dec-10 12:30N 37°52' W 122°19'0 0.0
2017-Dec-10 12:00N 37°52' W 122°19'0 0.0
2017-Dec-10 11:30N 37°52' W 122°19'0 0.0
2017-Dec-10 11:00N 37°52' W 122°19'0 0.0
2017-Dec-10 10:30N 37°52' W 122°19'0 0.0
2017-Dec-10 10:00N 37°52' W 122°19'0 0.0
2017-Dec-10 09:30N 37°52' W 122°19'0 0.0
2017-Dec-10 09:00N 37°52' W 122°19'0 0.0
2017-Dec-10 08:30N 37°52' W 122°19'0 0.0
2017-Dec-10 08:00N 37°52' W 122°19'0 0.6
2017-Dec-10 07:30N 37°52' W 122°19'3 6.4
2017-Dec-10 07:00N 37°49' W 122°22'2 4.5
2017-Dec-10 06:30N 37°47' W 122°23'3 5.8
2017-Dec-10 06:00N 37°50' W 122°25'3 5.0
2017-Dec-10 05:30N 37°50' W 122°28'4 7.2
2017-Dec-10 05:00N 37°52' W 122°25'4 7.7
2017-Dec-10 04:30N 37°51' W 122°21'2 3.1
2017-Dec-10 04:00N 37°52' W 122°19'0 0.0
2017-Dec-10 03:30N 37°52' W 122°19'0 0.0
2017-Dec-10 03:00N 37°52' W 122°19'0 0.0
2017-Dec-10 02:30N 37°52' W 122°19'0 0.0
2017-Dec-10 02:00N 37°52' W 122°19'0 0.0
2017-Dec-10 01:30N 37°52' W 122°19'0 0.0
2017-Dec-10 01:00N 37°52' W 122°19'0 0.0
2017-Dec-10 00:30N 37°52' W 122°19'0 0.0
2017-Dec-10 00:00N 37°52' W 122°19'0 0.0
2017-Dec-09 23:30N 37°52' W 122°19'0 0.0
2017-Dec-09 23:00N 37°52' W 122°19'0 0.0
2017-Dec-09 22:30N 37°52' W 122°19'0 0.0
2017-Dec-09 22:00N 37°52' W 122°19'0 0.0
2017-Dec-09 21:30N 37°52' W 122°19'0 0.0
2017-Dec-09 21:00N 37°52' W 122°19'0 0.0
2017-Dec-09 20:30N 37°52' W 122°19'0 0.0
2017-Dec-09 20:00N 37°52' W 122°19'0 0.0
2017-Dec-09 19:30N 37°52' W 122°19'0 0.0
2017-Dec-09 19:00N 37°52' W 122°19'0 0.0
2017-Dec-09 18:30N 37°52' W 122°19'0 0.0
2017-Dec-09 18:00N 37°52' W 122°19'0 0.0
2017-Dec-09 17:30N 37°52' W 122°19'0 0.0
2017-Dec-09 17:00N 37°52' W 122°19'0 0.0
2017-Dec-09 16:30N 37°52' W 122°19'0 0.0
2017-Dec-09 16:00N 37°52' W 122°19'0 0.0
2017-Dec-09 15:30N 37°52' W 122°19'0 0.0
2017-Dec-09 15:00N 37°52' W 122°19'0 0.0
2017-Dec-09 14:30N 37°52' W 122°19'0 0.0
2017-Dec-09 14:00N 37°52' W 122°19'0 0.0
2017-Dec-09 13:30N 37°52' W 122°19'0 0.0
2017-Dec-09 13:00N 37°52' W 122°19'0 0.0
2017-Dec-09 12:30N 37°52' W 122°19'0 0.0
2017-Dec-09 12:00N 37°52' W 122°19'0 0.0
2017-Dec-09 11:30N 37°52' W 122°19'0 0.0
2017-Dec-09 11:00N 37°52' W 122°19'0 0.0
2017-Dec-09 10:30N 37°52' W 122°19'0 0.0
2017-Dec-09 10:00N 37°52' W 122°19'0 0.0
2017-Dec-09 09:30N 37°52' W 122°19'0 0.0
2017-Dec-09 09:00N 37°52' W 122°19'0 0.0
2017-Dec-09 08:30N 37°52' W 122°19'0 0.0
2017-Dec-09 08:00N 37°52' W 122°19'0 0.0
2017-Dec-09 07:30N 37°52' W 122°19'0 0.0
2017-Dec-09 07:00N 37°52' W 122°19'1 1.2
2017-Dec-09 06:30N 37°52' W 122°19'3 5.6
2017-Dec-09 06:00N 37°51' W 122°23'3 5.0
2017-Dec-09 05:30N 37°50' W 122°26'2 3.6
2017-Dec-09 05:01N 37°49' W 122°28'5 9.0
2017-Dec-09 04:30N 37°48' W 122°22'3 6.8
2017-Dec-09 04:00N 37°51' W 122°21'2 3.2
2017-Dec-09 03:31N 37°52' W 122°19'0 0.0
2017-Dec-09 03:00N 37°52' W 122°19'0 0.0
2017-Dec-09 02:30N 37°52' W 122°19'0 0.0
2017-Dec-09 02:00N 37°52' W 122°19'0 0.0
2017-Dec-09 01:30N 37°52' W 122°19'0 0.0
2017-Dec-09 01:00N 37°52' W 122°19'0 0.0
2017-Dec-09 00:30N 37°52' W 122°19'0 0.0
2017-Dec-09 00:00N 37°52' W 122°19'0 0.0
2017-Dec-08 23:30N 37°52' W 122°19'0 0.0
2017-Dec-08 23:00N 37°52' W 122°19'0 0.0
2017-Dec-08 22:30N 37°52' W 122°19'0 0.0
2017-Dec-08 22:01N 37°52' W 122°19'0 0.0
2017-Dec-08 21:30N 37°52' W 122°19'0 0.0
2017-Dec-08 21:00N 37°52' W 122°19'0 0.0
2017-Dec-08 20:31N 37°52' W 122°19'0 0.0
2017-Dec-08 20:00N 37°52' W 122°19'0 0.0
2017-Dec-08 19:30N 37°52' W 122°19'0 0.0
2017-Dec-08 19:01N 37°52' W 122°19'0 0.0
2017-Dec-08 18:30N 37°52' W 122°19'0 0.0
2017-Dec-08 18:00N 37°52' W 122°19'0 0.0
2017-Dec-08 17:30N 37°52' W 122°19'0 0.0
2017-Dec-08 17:00N 37°52' W 122°19'0 0.0
2017-Dec-08 16:30N 37°52' W 122°19'0 0.0
2017-Dec-08 16:00N 37°52' W 122°19'0 0.0
2017-Dec-08 15:30N 37°52' W 122°19'0 0.0
2017-Dec-08 15:00N 37°52' W 122°19'0 0.0
2017-Dec-08 14:30N 37°52' W 122°19'0 0.0
2017-Dec-08 14:01N 37°52' W 122°19'0 0.0
2017-Dec-08 13:30N 37°52' W 122°19'0 0.0
2017-Dec-08 13:01N 37°52' W 122°19'0 0.0
2017-Dec-08 12:30N 37°52' W 122°19'0 0.0
2017-Dec-08 12:00N 37°52' W 122°19'0 0.0
2017-Dec-08 11:30N 37°52' W 122°19'0 0.0
2017-Dec-08 11:00N 37°52' W 122°19'0 0.0
2017-Dec-08 10:30N 37°52' W 122°19'0 0.0
2017-Dec-08 10:00N 37°52' W 122°19'0 0.0
2017-Dec-08 09:30N 37°52' W 122°19'0 0.0
2017-Dec-08 09:00N 37°52' W 122°19'0 0.0
2017-Dec-08 08:31N 37°52' W 122°19'0 0.0
2017-Dec-08 08:00N 37°52' W 122°19'0 0.0
2017-Dec-08 07:30N 37°52' W 122°19'0 0.0
2017-Dec-08 07:01N 37°52' W 122°19'0 0.0
2017-Dec-08 06:31N 37°52' W 122°19'0 0.0
2017-Dec-08 06:00N 37°52' W 122°19'0 0.0
2017-Dec-08 05:30N 37°52' W 122°19'0 0.0
2017-Dec-08 05:00N 37°52' W 122°19'0 0.1
2017-Dec-08 04:31N 37°52' W 122°19'3 6.7
2017-Dec-08 04:01N 37°50' W 122°23'3 4.9
2017-Dec-08 03:29N 37°48' W 122°24'1 1.4
2017-Dec-08 03:01N 37°48' W 122°23'2 3.9
2017-Dec-08 02:31N 37°49' W 122°25'3 6.8
2017-Dec-08 02:00N 37°52' W 122°26'2 5.0
2017-Dec-08 01:31N 37°52' W 122°29'3 6.0
2017-Dec-08 01:01N 37°49' W 122°28'3 6.9
2017-Dec-08 00:31N 37°48' W 122°24'0 0.2
2017-Dec-08 00:00N 37°48' W 122°24'2 4.2
2017-Dec-07 23:30N 37°50' W 122°23'4 7.6
2017-Dec-07 23:01N 37°52' W 122°19'0 0.0
2017-Dec-07 22:31N 37°52' W 122°19'0 0.0
2017-Dec-07 22:01N 37°52' W 122°19'0 0.0
2017-Dec-07 21:30N 37°52' W 122°19'0 0.0
2017-Dec-07 21:00N 37°52' W 122°19'0 0.0
2017-Dec-07 20:30N 37°52' W 122°19'0 0.0
2017-Dec-07 20:01N 37°52' W 122°19'0 0.0
2017-Dec-07 19:31N 37°52' W 122°19'0 0.0
2017-Dec-07 19:01N 37°52' W 122°19'0 0.0
2017-Dec-07 18:30N 37°52' W 122°19'0 0.0
2017-Dec-07 18:01N 37°52' W 122°19'0 0.0
2017-Dec-07 17:30N 37°52' W 122°19'0 0.0
2017-Dec-07 17:00N 37°52' W 122°19'0 0.0
2017-Dec-07 16:31N 37°52' W 122°19'0 0.0
2017-Dec-07 16:01N 37°52' W 122°19'0 0.0
2017-Dec-07 15:31N 37°52' W 122°19'0 0.0
2017-Dec-07 15:00N 37°52' W 122°19'0 0.0
2017-Dec-07 14:31N 37°52' W 122°19'0 0.0
2017-Dec-07 14:00N 37°52' W 122°19'0 0.0
2017-Dec-07 13:31N 37°52' W 122°19'0 0.0
2017-Dec-07 13:01N 37°52' W 122°19'0 0.0
2017-Dec-07 12:31N 37°52' W 122°19'0 0.0
2017-Dec-07 12:01N 37°52' W 122°19'0 0.0
2017-Dec-07 11:31N 37°52' W 122°19'0 0.0
2017-Dec-07 11:01N 37°52' W 122°19'0 0.0
2017-Dec-07 10:31N 37°52' W 122°19'0 0.0
2017-Dec-07 10:01N 37°52' W 122°19'0 0.0
2017-Dec-07 09:31N 37°52' W 122°19'0 0.0
2017-Dec-07 09:00N 37°52' W 122°19'0 0.0
2017-Dec-07 08:31N 37°52' W 122°19'0 0.0
2017-Dec-07 08:01N 37°52' W 122°19'0 0.0
2017-Dec-07 07:31N 37°52' W 122°19'0 0.0
2017-Dec-07 07:01N 37°52' W 122°19'0 0.0
2017-Dec-07 06:31N 37°52' W 122°19'0 0.0
2017-Dec-07 06:01N 37°52' W 122°19'0 0.0
2017-Dec-07 05:30N 37°52' W 122°19'0 0.0
2017-Dec-07 05:01N 37°52' W 122°19'0 0.0
2017-Dec-07 04:31N 37°52' W 122°19'0 0.0
2017-Dec-07 04:01N 37°52' W 122°19'0 0.0
2017-Dec-07 03:30N 37°52' W 122°19'0 0.0
2017-Dec-07 03:01N 37°52' W 122°19'0 0.0
2017-Dec-07 02:31N 37°52' W 122°19'0 0.0
2017-Dec-07 02:01N 37°52' W 122°19'0 0.0
2017-Dec-07 01:31N 37°52' W 122°19'0 0.0
2017-Dec-07 01:01N 37°52' W 122°19'2 5.0
2017-Dec-07 00:31N 37°51' W 122°22'4 7.4
2017-Dec-07 00:01N 37°49' W 122°26'3 6.0
2017-Dec-06 23:30N 37°51' W 122°23'3 6.4
2017-Dec-06 23:01N 37°52' W 122°19'0 0.0
2017-Dec-06 22:31N 37°52' W 122°19'0 0.0
2017-Dec-06 22:01N 37°52' W 122°19'0 0.0
2017-Dec-06 21:31N 37°52' W 122°19'0 0.0
2017-Dec-06 21:01N 37°52' W 122°19'  

Dump ship's entire track history